createdAt,value
2023-04-05T07:21:41.999Z,20.30
2023-04-05T07:23:43.869Z,20.30
2023-04-05T07:59:56.665Z,21.20
2023-04-05T08:02:02.080Z,21.20
2023-04-05T08:13:09.620Z,21.20
2023-04-05T08:39:10.018Z,21.70
2023-04-05T08:41:19.167Z,21.70
2023-04-05T08:43:28.437Z,21.80
2023-04-05T08:45:30.869Z,21.80
2023-04-05T08:47:34.511Z,21.90
2023-04-05T08:49:38.738Z,22.00
2023-04-05T08:51:40.584Z,22.00
2023-04-05T08:55:45.546Z,22.10
2023-04-05T08:57:49.873Z,22.10
2023-04-05T08:59:52.096Z,22.10
2023-04-05T09:01:54.630Z,22.10
2023-04-05T09:04:01.439Z,22.10
2023-04-05T09:06:05.212Z,22.00
2023-04-05T09:08:07.331Z,22.10
2023-04-05T09:10:09.261Z,22.10
2023-04-05T09:12:11.228Z,21.90
2023-04-05T09:14:13.041Z,21.90
2023-04-05T09:16:15.161Z,21.90
2023-04-05T09:18:26.151Z,21.90
2023-04-05T09:20:29.007Z,22.00
2023-04-05T09:22:30.813Z,22.00
2023-04-05T09:24:33.925Z,22.00
2023-04-05T09:26:35.731Z,22.00
2023-04-05T09:28:41.316Z,22.00
2023-04-05T09:30:46.118Z,21.90
2023-04-05T09:32:48.055Z,21.90
2023-04-05T09:34:53.979Z,21.80
2023-04-05T09:37:03.128Z,21.70
2023-04-05T09:39:06.282Z,21.80
2023-04-05T09:41:11.220Z,21.80
2023-04-05T09:43:14.657Z,21.80
2023-04-05T09:45:17.093Z,21.50
2023-04-05T09:47:26.382Z,21.50
2023-04-05T09:49:32.576Z,21.20
2023-04-05T09:51:35.612Z,21.20
2023-04-05T09:53:56.141Z,20.90
2023-04-05T09:56:08.592Z,20.90
2023-04-05T09:58:13.574Z,20.90
2023-04-05T10:00:19.174Z,20.90
2023-04-05T10:02:24.700Z,20.80
2023-04-05T10:04:26.692Z,20.70
2023-04-05T10:06:42.142Z,20.70
2023-04-05T10:08:44.884Z,20.70
2023-04-05T10:10:47.460Z,20.80
2023-04-05T10:12:49.738Z,20.90
2023-04-05T10:14:51.593Z,20.90
2023-04-05T10:17:04.069Z,20.90
2023-04-05T10:19:08.259Z,21.00
2023-04-05T10:21:11.483Z,21.00
2023-04-05T10:23:15.611Z,21.00
2023-04-05T10:25:29.299Z,20.90
2023-04-05T10:27:33.043Z,20.90
2023-04-05T10:30:02.147Z,21.00
2023-04-05T10:32:30.219Z,21.10
2023-04-05T10:34:50.816Z,21.10
2023-04-05T10:36:55.746Z,21.30
2023-04-05T10:39:05.247Z,21.50
2023-04-05T10:41:12.228Z,21.60
2023-04-05T10:43:16.905Z,21.70
2023-04-05T10:45:18.797Z,21.80
2023-04-05T10:47:23.163Z,21.90
2023-04-05T10:49:29.690Z,21.80
2023-04-05T10:51:33.375Z,21.70
2023-04-05T10:53:37.435Z,21.60
2023-04-05T10:55:39.255Z,21.50
2023-04-05T10:57:41.700Z,21.50
2023-04-05T10:59:44.455Z,21.40
2023-04-05T11:01:46.581Z,21.40
2023-04-05T11:03:49.112Z,21.30
2023-04-05T11:05:51.049Z,21.20
2023-04-05T11:07:53.105Z,21.30
2023-04-05T11:10:01.875Z,21.40
2023-04-05T11:12:03.770Z,21.60
2023-04-05T11:14:17.510Z,21.70
2023-04-05T11:16:19.787Z,21.80
2023-04-05T11:18:21.918Z,21.90
2023-04-05T11:20:23.670Z,22.00
2023-04-05T11:22:26.872Z,22.00
2023-04-05T11:24:48.523Z,22.00
2023-04-05T11:26:50.305Z,22.00
2023-04-05T11:28:57.234Z,22.00
2023-04-05T11:31:11.668Z,22.10
2023-04-05T11:33:33.329Z,22.10
2023-04-05T11:35:39.100Z,22.20
2023-04-05T11:37:56.165Z,22.20
2023-04-05T11:40:24.123Z,22.10
2023-04-05T11:42:25.892Z,22.00
2023-04-05T11:44:28.254Z,22.10
2023-04-05T11:46:32.776Z,22.20
2023-04-05T11:48:34.568Z,22.30
2023-04-05T11:50:36.832Z,22.30
2023-04-05T11:52:38.657Z,22.40
2023-04-05T11:54:40.435Z,22.40
2023-04-05T11:56:42.210Z,22.20
2023-04-05T11:58:43.943Z,22.20
2023-04-05T12:00:46.291Z,22.30
2023-04-05T12:02:48.089Z,22.40
2023-04-05T12:04:56.561Z,22.40
2023-04-05T12:07:14.336Z,22.50
2023-04-05T12:09:16.149Z,22.50
2023-04-05T12:11:27.626Z,22.60
2023-04-05T12:13:30.337Z,22.60
2023-04-05T12:15:35.930Z,22.60
2023-04-05T12:17:41.253Z,22.70
2023-04-05T12:19:43.118Z,22.70
2023-04-05T12:21:44.968Z,22.80
2023-04-05T12:23:46.981Z,22.80
2023-04-05T12:25:49.011Z,22.80
2023-04-05T12:30:25.285Z,22.60
2023-04-05T12:32:35.328Z,22.60
2023-04-05T12:36:39.559Z,22.00
2023-04-05T12:38:41.304Z,22.10
2023-04-05T12:40:43.682Z,22.20
2023-04-05T12:42:45.458Z,22.40
2023-04-05T12:45:02.047Z,22.60
2023-04-05T12:47:03.853Z,22.60
2023-04-05T12:51:14.183Z,22.90
2023-04-05T12:53:16.782Z,22.90
2023-04-05T12:55:18.582Z,22.90
2023-04-05T12:57:28.113Z,22.80
2023-04-05T12:59:29.857Z,22.70
2023-04-05T13:01:31.704Z,22.80
2023-04-05T13:03:33.503Z,22.90
2023-04-05T13:05:35.260Z,22.90
2023-04-05T13:07:36.970Z,23.00
2023-04-05T13:09:38.768Z,23.00
2023-04-05T13:11:40.503Z,23.10
2023-04-05T13:13:42.271Z,23.10
2023-04-05T13:15:44.912Z,23.10
2023-04-05T13:17:46.976Z,23.10
2023-04-05T13:19:49.910Z,23.20
2023-04-05T13:21:51.706Z,23.20
2023-04-05T13:23:53.434Z,23.30
2023-04-05T13:25:55.287Z,23.30
2023-04-05T13:27:56.978Z,23.20
2023-04-05T13:29:58.758Z,23.10
2023-04-05T13:32:00.567Z,23.00
2023-04-05T13:34:02.395Z,22.90
2023-04-05T13:36:04.265Z,22.90
2023-04-05T13:38:06.051Z,22.80
2023-04-05T13:40:07.990Z,22.80
2023-04-05T13:42:09.811Z,22.90
2023-04-05T13:44:11.574Z,23.00
2023-04-05T13:46:13.368Z,23.20
2023-04-05T13:48:15.129Z,23.20
2023-04-05T13:50:17.015Z,23.20
2023-04-05T13:52:18.738Z,23.10
2023-04-05T13:54:20.472Z,23.00
2023-04-05T13:56:22.266Z,22.80
2023-04-05T13:58:24.049Z,21.90
2023-04-05T14:00:25.758Z,22.70
2023-04-05T14:02:27.854Z,22.70
2023-04-05T14:04:29.676Z,22.80
2023-04-05T14:06:31.494Z,22.70
2023-04-05T14:08:33.346Z,22.70
2023-04-05T14:10:35.125Z,22.70
2023-04-05T14:12:36.871Z,22.60
2023-04-05T14:14:38.670Z,22.40
2023-04-05T14:16:40.519Z,22.40
2023-04-05T14:18:42.393Z,22.40
2023-04-05T14:20:44.228Z,22.50
2023-04-05T14:22:46.120Z,22.40
2023-04-05T14:24:47.898Z,22.40
2023-04-05T14:26:49.843Z,22.30
2023-04-05T14:28:51.991Z,22.40
2023-04-05T14:30:53.828Z,22.40
2023-04-05T14:32:55.861Z,22.30
2023-04-05T14:34:57.912Z,22.40
2023-04-05T14:36:59.674Z,22.30
2023-04-05T14:39:01.584Z,22.20
2023-04-05T14:41:03.374Z,22.30
2023-04-05T14:43:05.179Z,22.20
2023-04-05T14:45:07.228Z,22.20
2023-04-05T14:47:09.095Z,22.20
2023-04-05T14:49:10.834Z,22.30
2023-04-05T14:51:12.606Z,22.30
2023-04-05T14:53:14.466Z,22.20
2023-04-05T14:57:18.497Z,22.10
2023-04-05T14:59:20.373Z,22.20
2023-04-05T15:01:22.264Z,22.10
2023-04-05T15:03:24.489Z,22.00
2023-04-05T15:05:27.127Z,22.00
2023-04-05T15:07:28.956Z,22.10
2023-04-05T15:09:30.695Z,22.10
2023-04-05T15:11:32.533Z,22.10
2023-04-05T15:13:34.975Z,22.10
2023-04-05T15:15:36.798Z,22.10
2023-04-05T15:17:38.631Z,22.20
2023-04-05T15:19:40.516Z,22.20
2023-04-05T15:21:42.273Z,22.20
2023-04-05T15:23:44.151Z,22.20
2023-04-05T15:25:45.922Z,23.10
2023-04-05T15:27:47.730Z,22.20
2023-04-05T15:29:49.528Z,22.20
2023-04-05T15:31:51.499Z,22.10
2023-04-05T15:33:53.314Z,22.00
2023-04-05T15:35:55.207Z,22.00
2023-04-05T15:37:56.955Z,22.10
2023-04-05T15:40:00.720Z,22.00
2023-04-05T15:42:06.574Z,22.00
2023-04-05T15:44:08.397Z,22.00
2023-04-05T15:46:10.161Z,22.00
2023-04-05T15:48:12.090Z,21.90
2023-04-05T15:50:13.893Z,21.90
2023-04-05T15:52:15.756Z,21.80
2023-04-05T15:54:17.547Z,21.80
2023-04-05T15:56:19.306Z,21.80
2023-04-05T15:58:21.028Z,21.90
2023-04-05T16:00:22.976Z,21.80
2023-04-05T16:02:24.758Z,21.40
2023-04-05T16:04:26.657Z,21.40
2023-04-05T16:06:28.415Z,21.70
2023-04-05T16:08:30.290Z,21.70
2023-04-05T16:10:32.022Z,21.70
2023-04-05T16:12:33.862Z,21.70
2023-04-05T16:16:45.978Z,21.60
2023-04-05T16:18:54.516Z,21.50
2023-04-05T16:20:56.270Z,21.40
2023-04-05T16:22:57.992Z,21.40
2023-04-05T16:24:59.872Z,21.20
2023-04-05T16:27:01.597Z,21.30
2023-04-05T16:29:03.619Z,21.20
2023-04-05T16:31:05.686Z,21.00
2023-04-05T16:33:07.707Z,21.10
2023-04-05T16:35:09.612Z,21.30
2023-04-05T16:37:11.463Z,21.40
2023-04-05T16:39:13.182Z,21.30
2023-04-05T16:41:14.999Z,21.30
2023-04-05T16:43:17.014Z,21.30
2023-04-05T16:45:18.868Z,21.30
2023-04-05T16:47:20.577Z,21.20
2023-04-05T16:49:22.386Z,21.30
2023-04-05T16:51:24.180Z,21.30
2023-04-05T16:53:26.114Z,21.30
2023-04-05T16:55:27.888Z,21.30
2023-04-05T16:57:29.746Z,21.40
2023-04-05T16:59:31.513Z,21.40
2023-04-05T17:01:33.404Z,21.30
2023-04-05T17:03:35.220Z,21.30
2023-04-05T17:05:37.020Z,21.20
2023-04-05T17:07:38.771Z,21.20
2023-04-05T17:09:40.545Z,21.10
2023-04-05T17:11:42.284Z,21.10
2023-04-05T17:13:44.118Z,21.10
2023-04-05T17:15:45.879Z,21.10
2023-04-05T17:17:47.792Z,21.20
2023-04-05T17:19:49.570Z,21.20
2023-04-05T17:21:51.383Z,21.20
2023-04-05T17:23:53.096Z,21.20
2023-04-05T17:25:54.960Z,21.20
2023-04-05T17:27:56.829Z,21.20
2023-04-05T17:29:58.608Z,21.20
2023-04-05T17:32:00.393Z,20.90
2023-04-05T17:34:02.220Z,20.70
2023-04-05T17:36:04.114Z,20.60
2023-04-05T17:38:05.986Z,20.70
2023-04-05T17:40:08.020Z,20.70
2023-04-05T17:42:09.809Z,20.80
2023-04-05T17:44:11.603Z,20.90
2023-04-05T17:46:13.752Z,20.90
2023-04-05T17:48:15.630Z,20.90
2023-04-05T17:50:17.490Z,20.90
2023-04-05T17:52:19.245Z,20.90
2023-04-05T17:54:21.058Z,20.90
2023-04-05T17:56:22.811Z,20.90
2023-04-05T17:58:24.689Z,20.90
2023-04-05T18:00:26.471Z,20.90
2023-04-05T18:02:28.424Z,20.90
2023-04-05T18:04:30.345Z,20.90
2023-04-05T18:06:32.170Z,20.90
2023-04-05T18:08:33.949Z,20.90
2023-04-05T18:10:35.770Z,20.90
2023-04-05T18:12:37.785Z,20.90
2023-04-05T18:14:39.642Z,20.90
2023-04-05T18:16:41.463Z,20.80
2023-04-05T18:18:43.307Z,20.80
2023-04-05T18:20:45.057Z,20.80
2023-04-05T18:22:46.922Z,20.80
2023-04-05T18:24:48.657Z,20.80
2023-04-05T18:26:50.470Z,20.80
2023-04-05T18:28:52.251Z,20.90
2023-04-05T18:30:54.046Z,20.80
2023-04-05T18:32:55.854Z,20.80
2023-04-05T18:34:57.727Z,20.80
2023-04-05T18:36:59.446Z,20.80
2023-04-05T18:39:01.456Z,20.80
2023-04-05T18:41:03.348Z,20.80
2023-04-05T18:43:05.494Z,20.90
2023-04-05T18:45:07.591Z,20.80
2023-04-05T18:47:09.398Z,20.80
2023-04-05T18:49:11.263Z,20.90
2023-04-05T18:51:13.075Z,20.80
2023-04-05T18:53:14.820Z,20.80
2023-04-05T18:55:16.620Z,20.80
2023-04-05T18:57:18.410Z,20.80
2023-04-05T18:59:20.358Z,20.80
2023-04-05T19:01:22.344Z,20.80
2023-04-05T19:03:24.277Z,20.80
2023-04-05T19:05:26.070Z,20.80
2023-04-05T19:07:27.885Z,20.80
2023-04-05T19:09:29.630Z,20.70
2023-04-05T19:11:31.390Z,20.70
2023-04-05T19:13:36.931Z,20.60
2023-04-05T19:15:38.821Z,20.60
2023-04-05T19:17:40.681Z,20.60
2023-04-05T19:19:42.474Z,20.60
2023-04-05T19:21:44.352Z,20.60
2023-04-05T19:23:46.170Z,20.60
2023-04-05T19:25:47.919Z,20.60
2023-04-05T19:27:49.750Z,20.60
2023-04-05T19:29:51.508Z,20.60
2023-04-05T19:31:54.389Z,20.60
2023-04-05T19:33:56.138Z,20.60
2023-04-05T19:35:58.183Z,20.60
2023-04-05T19:37:59.950Z,20.60
2023-04-05T19:40:02.028Z,20.60
2023-04-05T19:42:04.695Z,20.60
2023-04-05T19:44:09.058Z,20.60
2023-04-05T19:46:10.895Z,20.60
2023-04-05T19:48:47.985Z,20.60
2023-04-05T19:50:57.468Z,20.40
2023-04-05T19:52:59.551Z,20.60
2023-04-05T19:55:01.842Z,20.60
2023-04-05T19:57:05.694Z,20.60
2023-04-05T19:59:13.696Z,20.60
2023-04-05T20:01:35.056Z,20.60
2023-04-05T20:03:38.129Z,20.60
2023-04-05T20:05:42.912Z,20.60
2023-04-05T20:07:44.744Z,20.60
2023-04-05T20:09:46.541Z,20.60
2023-04-05T20:12:08.620Z,20.60
2023-04-05T20:14:10.577Z,20.60
2023-04-05T20:16:12.908Z,20.60
2023-04-05T20:18:18.173Z,20.60
2023-04-05T20:20:20.047Z,20.60
2023-04-05T20:22:21.777Z,20.60
2023-04-05T20:24:24.384Z,20.60
2023-04-05T20:26:31.180Z,20.60
2023-04-05T20:28:33.619Z,20.60
2023-04-05T20:30:35.385Z,20.60
2023-04-05T20:32:37.164Z,20.60
2023-04-05T20:34:38.970Z,20.60
2023-04-05T20:36:55.527Z,20.60
2023-04-05T20:38:57.258Z,20.60
2023-04-05T20:40:59.094Z,20.60
2023-04-05T20:43:00.883Z,20.60
2023-04-05T20:45:02.809Z,20.60
2023-04-05T20:47:04.568Z,20.60
2023-04-05T20:49:06.850Z,20.60
2023-04-05T20:51:09.608Z,20.60
2023-04-05T20:53:11.426Z,20.60
2023-04-05T20:55:13.212Z,20.60
2023-04-05T20:57:15.076Z,20.60
2023-04-05T20:59:16.953Z,20.60
2023-04-05T21:01:18.888Z,20.60
2023-04-05T21:03:20.735Z,20.60
2023-04-05T21:05:22.577Z,20.60
2023-04-05T21:07:24.323Z,20.60
2023-04-05T21:09:26.099Z,20.60
2023-04-05T21:11:27.862Z,20.60
2023-04-05T21:13:29.734Z,20.60
2023-04-05T21:15:31.742Z,20.60
2023-04-05T21:17:33.535Z,20.60
2023-04-05T21:19:35.292Z,20.60
2023-04-05T21:21:37.098Z,20.60
2023-04-05T21:23:38.862Z,20.60
2023-04-05T21:25:40.716Z,20.60
2023-04-05T21:27:42.435Z,20.60
2023-04-05T21:29:44.275Z,20.60
2023-04-05T21:31:46.054Z,20.60
2023-04-05T21:33:47.850Z,20.60
2023-04-05T21:35:49.647Z,20.60
2023-04-05T21:37:51.492Z,20.60
2023-04-05T21:39:53.248Z,20.60
2023-04-05T21:41:55.100Z,20.60
2023-04-05T21:43:56.866Z,20.60
2023-04-05T21:45:58.657Z,20.60
2023-04-05T21:48:00.466Z,20.60
2023-04-05T21:50:02.436Z,20.60
2023-04-05T21:52:04.217Z,20.60
2023-04-05T21:54:06.009Z,20.60
2023-04-05T21:56:07.773Z,20.60
2023-04-05T21:58:09.604Z,20.60
2023-04-05T22:00:11.481Z,20.60
2023-04-05T22:02:16.215Z,20.60
2023-04-05T22:04:17.976Z,20.60
2023-04-05T22:06:19.787Z,20.60
2023-04-05T22:08:21.536Z,20.60
2023-04-05T22:10:23.391Z,20.60
2023-04-05T22:12:25.188Z,20.60
2023-04-05T22:14:27.239Z,20.60
2023-04-05T22:16:29.101Z,20.60
2023-04-05T22:18:30.960Z,20.60
2023-04-05T22:20:32.688Z,20.60
2023-04-05T22:22:34.489Z,20.50
2023-04-05T22:24:36.468Z,20.50
2023-04-05T22:26:39.131Z,20.50
2023-04-05T22:28:40.886Z,20.50
2023-04-05T22:30:44.094Z,20.50
2023-04-05T22:32:46.120Z,20.50
2023-04-05T22:34:47.970Z,20.50
2023-04-05T22:36:49.738Z,20.60
2023-04-05T22:38:53.639Z,20.50
2023-04-05T22:40:55.985Z,20.50
2023-04-05T22:42:57.854Z,20.50
2023-04-05T22:44:59.642Z,20.50
2023-04-05T22:47:01.505Z,20.50
2023-04-05T22:49:03.593Z,20.50
2023-04-05T22:51:05.422Z,20.50
2023-04-05T22:53:07.187Z,20.50
2023-04-05T22:55:09.111Z,20.50
2023-04-05T22:57:11.176Z,20.50
2023-04-05T22:59:13.452Z,20.50
2023-04-05T23:01:15.259Z,20.50
2023-04-05T23:03:17.128Z,20.50
2023-04-05T23:05:18.896Z,20.50
2023-04-05T23:07:20.713Z,20.50
2023-04-05T23:09:22.458Z,20.50
2023-04-05T23:11:24.183Z,20.50
2023-04-05T23:13:25.942Z,20.50
2023-04-05T23:15:27.803Z,20.50
2023-04-05T23:17:29.714Z,20.50
2023-04-05T23:19:31.936Z,20.50
2023-04-05T23:21:33.688Z,20.50
2023-04-05T23:23:35.734Z,20.50
2023-04-05T23:25:37.553Z,20.50
2023-04-05T23:27:39.385Z,20.50
2023-04-05T23:29:41.097Z,20.50
2023-04-05T23:31:42.928Z,20.50
2023-04-05T23:33:44.687Z,20.50
2023-04-05T23:35:46.526Z,20.50
2023-04-05T23:37:48.259Z,20.50
2023-04-05T23:39:50.083Z,20.50
2023-04-05T23:41:51.814Z,20.50
2023-04-05T23:43:53.647Z,20.60
2023-04-05T23:45:55.405Z,20.50
2023-04-05T23:47:57.290Z,20.60
2023-04-05T23:49:59.080Z,20.60
2023-04-05T23:52:00.905Z,20.60
2023-04-05T23:54:02.627Z,20.60
2023-04-05T23:56:04.596Z,20.60
2023-04-05T23:58:07.018Z,20.60
